Évreux-Fauville (BA 105) Air Base

Airport
ICAO code: 
LFOE
Summary
ICAO Region: 
EUR
Territory: 
Location: 
, Haute-Normandie
Serving: 
Evreux
Elevation: 
464 ft
Coordinates: 
Aerial View: 
49° 1' 43.208" N, 1° 13' 11.51" E
Metar
Observation
LFOE 302100Z AUTO 21013KT 9999 OVC014 09/07 Q1013
Station
Evreux
Date/Time
2021-11-30 21:00:00
Wind direction
210°
Wind speed
13 kts
Lowest cloud amount
overcast
Temperature
9°C
Dew point
7°C
Humidity
87%
QNH
1013 hPa
Weather condition
n/a

Runways

Designator Length Width Surface Rops
4/22 2995 45 ASP No/No
Airport map: 
Aerial View: 

SKYbrary Partners:

Safety knowledge contributed by: